Flight Track Log - Related Links

Times and Time Zones

All times are in EDT time to prevent confusion due to time zone crossing. See the FRG1561 flight status page for this flight to view local times or setup timezone preferences in your user account.

Time Position Orientation Groundspeed Altitude Reporting Facility
EDT Latitude Longitude Course Direction KTS MPH feet Rate Location/Type
Thu 11:06:09 PM 40.7719 -89.6667 21° North 146 168 4,800  Level Chicago Center
Thu 11:07:10 PM 40.8108 -89.6472 21° North 149 171 6,000 1,122 Climbing Chicago Center
Thu 11:08:12 PM 40.8536 -89.6242 22° Northeast 160 184 7,100 1,024 Climbing Chicago Center
Thu 11:09:00 PM 40.9254 -89.5539 21° North  Level FlightAware Approximate
Thu 11:09:13 PM 40.8972 -89.6017 21° North 166 191 8,100  Level Chicago Center
Thu 11:10:00 PM 40.9782 -89.5276 21° North  Level FlightAware Approximate
Thu 11:10:15 PM 40.9442 -89.5778 21° North 176 203 9,100  Level Chicago Center
Thu 11:11:00 PM 41.0310 -89.5012 21° North  Level FlightAware Approximate
Thu 11:11:16 PM 40.9950 -89.5514 21° North 191 220 9,100  Level Chicago Center
Thu 11:12:18 PM 41.0511 -89.5219 22° Northeast 210 242 9,200  Climbing Chicago Center
Thu 11:13:19 PM 41.1181 -89.4872 21° North 214 246 9,100  Descending Chicago Center
Thu 11:14:21 PM 41.1725 -89.4581 22° Northeast 212 244 9,200  Climbing Chicago Center
Thu 11:15:22 PM 41.2281 -89.4292 21° North 214 246 9,100 -49 Descending Chicago Center
Thu 11:16:24 PM 41.2831 -89.4008 21° North 213 245 9,100  Level Chicago Center
Thu 11:17:25 PM 41.3364 -89.3728 22° Northeast 209 241 9,100  Level Chicago Center
Thu 11:18:27 PM 41.3903 -89.3450 21° North 208 239 9,100  Level Chicago Center
Thu 11:19:28 PM 41.4436 -89.3164 22° Northeast 207 238 9,100 49 Level Chicago Center
Thu 11:20:30 PM 41.4969 -89.2869 22° Northeast 207 238 9,200  Climbing Chicago Center
Thu 11:21:31 PM 41.5519 -89.2581 21° North 208 239 9,100 -49 Descending Chicago Center
Thu 11:22:32 PM 41.6156 -89.2236 22° Northeast 207 238 9,100  Level Chicago Center
Thu 11:23:34 PM 41.6678 -89.1958 22° Northeast 205 236 9,100  Level Chicago Center
Thu 11:24:35 PM 41.7194 -89.1686 21° North 201 231 9,100  Level Chicago Center
Thu 11:25:36 PM 41.7725 -89.1386 23° Northeast 207 238 9,100  Level Chicago Center
Thu 11:26:38 PM 41.8267 -89.1108 21° North 208 239 9,100  Level Chicago Center
Thu 11:27:39 PM 41.8803 -89.0814 22° Northeast 208 239 9,100  Level Chicago Center
Thu 11:28:40 PM 41.9328 -89.0542 21° North 205 236 9,100  Level Chicago Center
Thu 11:29:42 PM 41.9861 -89.0258 22° Northeast 206 237 9,100 -293 Level Chicago Center
Thu 11:30:43 PM 42.0519 -88.9897 22° Northeast 212 244 8,500 -689 Descending Chicago Center
Thu 11:31:44 PM 42.1103 -88.9589 21° North 216 249 7,700 -683 Descending Chicago Center
Thu 11:32:46 PM 42.1683 -88.9256 23° Northeast 223 257 7,100 -293 Descending Chicago Center
Thu 11:33:47 PM 42.2219 -88.8967 22° Northeast 209 241 7,100  Level Chicago Center
Thu 11:34:48 PM 42.2750 -88.8683 22° Northeast 206 237 7,100  Level Chicago Center
Thu 11:35:50 PM 42.3283 -88.8389 22° Northeast 206 237 7,100  Level Chicago Center
Thu 11:36:51 PM 42.3808 -88.8114 21° North 203 234 7,100  Level Chicago Center
Thu 11:37:52 PM 42.4342 -88.7822 22° Northeast 206 237 7,100  Level Chicago Center
Thu 11:38:54 PM 42.4756 -88.7278 44° Northeast 221 254 7,100  Level Chicago Center
Thu 11:39:55 PM 42.5203 -88.6567 50° Northeast 214 246 7,100  Level Chicago Center
Thu 11:40:56 PM 42.5578 -88.5931 51° Northeast 215 247 7,100  Level Chicago Center
Thu 11:41:58 PM 42.5942 -88.5272 53° Northeast 217 250 7,100 -195 Level Chicago Center
Thu 11:42:59 PM 42.6289 -88.4614 54° Northeast 217 250 6,700 -639 Descending Chicago Center
Thu 11:44:00 PM 42.6442 -88.3736 77° East 235 270 5,800 -878 Descending Chicago Center
Thu 11:45:02 PM 42.6611 -88.2869 75° East 238 274 4,900 -829 Descending Chicago Center
Thu 11:46:03 PM 42.6772 -88.2003 76° East 238 274 4,100 -443 Descending Chicago Center
Thu 11:47:04 PM 42.6928 -88.1142 76° East 236 272 4,000 -98 Descending Chicago Center
Thu 11:48:06 PM 42.6875 -88.0125 94° East 232 267 3,900 -634 Descending Chicago Center
Thu 11:49:07 PM 42.6889 -87.9336 89° East 220 253 2,700 -738 Descending Chicago Center
Thu 11:50:08 PM 42.7325 -87.9269 North 187 215 2,400  Descending Chicago Center
Thu 11:51:09 PM 42.7764 -87.9211 North 170 196 2,700 98 Climbing Chicago Center
Thu 11:52:11 PM 42.8247 -87.9125 North 167 192 2,600 -293 Descending Chicago Center
Thu 11:53:12 PM 42.8714 -87.9058 North 168 193 2,100 -689 Descending Chicago Center
Thu 11:54:13 PM 42.9142 -87.9014 North 167 192 1,200 -639 Descending Chicago Center
Thu 11:55:14 PM 42.9681 -87.8969 North 166 191 800 -393 Descending Chicago Center

Login

Don't have an account? Register now (free) for customized features, flight alerts, and more!